Time;durP1;ratioP1;P1;durP2;ratioP2;P2;SDS_P1;SDS_P2;PMS_P1;PMS_P2;Temp;Humidity;BMP_temperature;BMP_pressure;BME280_temperature;BME280_humidity;BME280_pressure;Samples;Min_cycle;Max_cycle;Signal;HPM_P1;HPM_P2
2022/04/22 00:00:08;;;;;;;12.02;7.00;;;;;;;;;;4391728;32;19973;-78
2022/04/22 00:02:33;;;;;;;10.65;6.95;;;;;;;;;;4392283;32;20019;-78
2022/04/22 00:04:58;;;;;;;;;;;;;;;;;;4392527;32;20030;-78
2022/04/22 00:07:23;;;;;;;8.18;6.43;;;;;;;;;;4391613;32;19933;-78
2022/04/22 00:09:48;;;;;;;;;;;;;;;;;;4391642;32;20445;-77
2022/04/22 00:12:14;;;;;;;13.13;8.52;;;;;;;;;;4392384;32;19942;-77
2022/04/22 00:14:39;;;;;;;;;;;;;;;;;;4378132;32;20197;-77
2022/04/22 00:17:13;;;;;;;12.82;6.53;;;;;;;;;;4391699;32;19938;-77
2022/04/22 00:19:38;;;;;;;14.63;6.75;;;;;;;;;;4392368;32;20104;-77
2022/04/22 00:22:04;;;;;;;13.45;7.07;;;;;;;;;;4391432;32;20031;-77
2022/04/22 00:24:29;;;;;;;;;;;;;;;;;;4392043;32;20368;-77
2022/04/22 00:26:58;;;;;;;8.45;6.05;;;;;;;;;;4391378;32;19982;-79
2022/04/22 00:29:23;;;;;;;9.77;6.25;;;;;;;;;;4377804;32;20027;-78
2022/04/22 00:31:54;;;;;;;7.62;5.75;;;;;;;;;;4390738;32;20084;-79
2022/04/22 00:34:20;;;;;;;8.73;5.50;;;;;;;;;;4377667;32;20045;-78
2022/04/22 00:36:45;;;;;;;8.13;5.35;;;;;;;;;;4391662;32;20072;-79
2022/04/22 00:39:13;;;;;;;9.27;5.90;;;;;;;;;;4391622;32;20046;-79
2022/04/22 00:41:39;;;;;;;8.38;5.85;;;;;;;;;;4391408;32;20111;-79
2022/04/22 00:44:04;;;;;;;10.20;6.07;;;;;;;;;;4391014;32;20431;-78
2022/04/22 00:46:29;;;;;;;;;;;;;;;;;;4392802;32;20080;-78
2022/04/22 00:48:55;;;;;;;8.93;5.68;;;;;;;;;;4390874;32;19942;-78
2022/04/22 00:51:22;;;;;;;;;;;;;;;;;;4391678;32;20509;-78
2022/04/22 00:53:50;;;;;;;7.43;5.28;;;;;;;;;;4391008;32;19953;-78
2022/04/22 00:56:15;;;;;;;11.77;6.20;;;;;;;;;;4390506;32;20100;-78
2022/04/22 00:58:42;;;;;;;10.55;6.25;;;;;;;;;;4390793;32;20026;-77
2022/04/22 01:01:07;;;;;;;7.68;5.50;;;;;;;;;;4390669;32;20086;-77
2022/04/22 01:03:33;;;;;;;;;;;;;;;;;;4391370;32;20397;-77
2022/04/22 01:11:27;;;;;;;7.53;6.07;;;;;;;;;;4391243;32;20045;-77
2022/04/22 01:13:53;;;;;;;12.73;6.35;;;;;;;;;;4390612;32;20049;-77
2022/04/22 01:16:18;;;;;;;8.20;6.20;;;;;;;;;;4390210;32;20027;-78
2022/04/22 01:18:44;;;;;;;12.70;6.45;;;;;;;;;;4391631;32;20416;-78
2022/04/22 01:21:09;;;;;;;9.13;6.72;;;;;;;;;;4391375;32;20434;-78
2022/04/22 01:23:36;;;;;;;;;;;;;;;;;;4390875;32;20367;-78
2022/04/22 01:26:01;;;;;;;10.73;7.30;;;;;;;;;;4390773;32;19961;-78
2022/04/22 01:28:27;;;;;;;;;;;;;;;;;;4390705;32;20023;-78
2022/04/22 01:30:56;;;;;;;9.27;7.20;;;;;;;;;;4390641;32;19946;-78
2022/04/22 01:33:22;;;;;;;11.27;7.78;;;;;;;;;;4390790;32;20057;-77
2022/04/22 01:35:47;;;;;;;;;;;;;;;;;;4391366;32;20054;-77
2022/04/22 01:38:12;;;;;;;9.50;7.37;;;;;;;;;;4390264;32;19967;-77
2022/04/22 01:40:37;;;;;;;;;;;;;;;;;;4390386;32;20166;-77
2022/04/22 01:43:04;;;;;;;11.27;7.55;;;;;;;;;;4390561;32;19934;-77
2022/04/22 01:45:30;;;;;;;11.68;8.07;;;;;;;;;;4390590;32;20163;-78
2022/04/22 01:47:55;;;;;;;;;;;;;;;;;;4376708;32;20420;-77
2022/04/22 01:50:21;;;;;;;13.65;8.52;;;;;;;;;;4390423;32;20279;-78
2022/04/22 01:52:46;;;;;;;;;;;;;;;;;;4390577;32;20031;-77
2022/04/22 01:55:11;;;;;;;11.93;7.30;;;;;;;;;;4390507;32;19945;-77
2022/04/22 01:57:36;;;;;;;;;;;;;;;;;;4391064;32;20452;-77
2022/04/22 02:00:02;;;;;;;11.18;7.37;;;;;;;;;;4391158;32;19993;-77
2022/04/22 02:02:27;;;;;;;;;;;;;;;;;;4376939;32;20472;-77
2022/04/22 02:04:53;;;;;;;10.37;7.53;;;;;;;;;;4389938;32;20312;-79
2022/04/22 02:07:21;;;;;;;;;;;;;;;;;;4391219;32;20115;-78
2022/04/22 02:09:46;;;;;;;10.30;7.03;;;;;;;;;;4389762;32;19941;-78
2022/04/22 02:12:11;;;;;;;;;;;;;;;;;;4391053;32;20068;-78
2022/04/22 02:14:36;;;;;;;10.35;7.78;;;;;;;;;;4376637;32;19934;-78
2022/04/22 02:17:02;;;;;;;;;;;;;;;;;;4390767;32;20136;-78
2022/04/22 02:19:27;;;;;;;9.85;7.70;;;;;;;;;;4390681;32;20003;-78
2022/04/22 02:21:52;;;;;;;;;;;;;;;;;;4390675;32;20398;-78
2022/04/22 02:24:18;;;;;;;11.77;7.35;;;;;;;;;;4390783;32;19965;-77
2022/04/22 02:29:27;;;;;;;11.93;7.20;;;;;;;;;;4390557;32;20345;-77
2022/04/22 02:31:52;;;;;;;;;;;;;;;;;;4392967;32;20030;-78
2022/04/22 02:34:21;;;;;;;15.57;8.20;;;;;;;;;;4391536;32;20303;-77
2022/04/22 02:36:49;;;;;;;12.52;7.53;;;;;;;;;;4389743;32;20507;-78
2022/04/22 02:39:15;;;;;;;9.95;8.32;;;;;;;;;;4389705;32;20034;-77
2022/04/22 02:47:08;;;;;;;12.25;7.90;;;;;;;;;;4391177;32;20077;-78
2022/04/22 02:49:33;;;;;;;;;;;;;;;;;;4390439;32;20380;-77
2022/04/22 02:51:59;;;;;;;11.25;8.18;;;;;;;;;;4376073;32;19957;-78
2022/04/22 02:54:24;;;;;;;;;;;;;;;;;;4392052;32;20172;-78
2022/04/22 02:56:50;;;;;;;12.10;7.57;;;;;;;;;;4392624;32;19938;-77
2022/04/22 02:59:19;;;;;;;12.68;8.60;;;;;;;;;;4393373;32;20156;-77
2022/04/22 03:01:47;;;;;;;12.75;8.18;;;;;;;;;;4393146;32;20298;-76
2022/04/22 03:04:12;;;;;;;17.45;7.85;;;;;;;;;;4392827;32;20035;-77
2022/04/22 03:06:37;;;;;;;;;;;;;;;;;;4393483;32;20081;-78
2022/04/22 03:09:03;;;;;;;11.97;7.77;;;;;;;;;;4378982;32;20003;-78
2022/04/22 03:11:29;;;;;;;;;;;;;;;;;;4392940;32;20127;-78
2022/04/22 03:13:54;;;;;;;13.62;7.78;;;;;;;;;;4378700;32;19992;-78
2022/04/22 03:16:20;;;;;;;;;;;;;;;;;;4393374;32;20103;-76
2022/04/22 03:18:45;;;;;;;13.07;7.43;;;;;;;;;;4392805;32;19938;-78
2022/04/22 03:21:10;;;;;;;;;;;;;;;;;;4380131;32;20022;-78
2022/04/22 03:23:35;;;;;;;12.88;7.78;;;;;;;;;;4393028;32;19938;-77
2022/04/22 03:26:00;;;;;;;;;;;;;;;;;;4393082;32;20023;-78
2022/04/22 03:28:26;;;;;;;10.20;7.45;;;;;;;;;;4392100;32;19941;-78
2022/04/22 03:30:51;;;;;;;;;;;;;;;;;;4392713;32;20126;-78
2022/04/22 03:33:17;;;;;;;13.50;7.55;;;;;;;;;;4378157;32;19938;-78
2022/04/22 03:35:43;;;;;;;11.88;7.60;;;;;;;;;;4392275;32;20079;-78
2022/04/22 03:38:08;;;;;;;;;;;;;;;;;;4379041;32;20039;-77
2022/04/22 03:40:34;;;;;;;11.98;7.45;;;;;;;;;;4391759;32;20340;-78
2022/04/22 03:42:59;;;;;;;;;;;;;;;;;;4392443;32;20023;-78
2022/04/22 03:45:24;;;;;;;17.67;7.93;;;;;;;;;;4393721;32;19942;-77
2022/04/22 03:47:49;;;;;;;;;;;;;;;;;;4393688;32;20056;-79
2022/04/22 03:50:15;;;;;;;12.43;7.82;;;;;;;;;;4392061;32;19952;-78
2022/04/22 03:52:40;;;;;;;;;;;;;;;;;;4392804;32;20068;-77
2022/04/22 03:55:06;;;;;;;11.32;8.00;;;;;;;;;;4391647;32;20337;-78
2022/04/22 04:00:15;;;;;;;10.50;7.20;;;;;;;;;;4392271;32;20065;-78
2022/04/22 04:02:40;;;;;;;;;;;;;;;;;;4392218;32;20089;-78
2022/04/22 04:05:06;;;;;;;18.12;10.13;;;;;;;;;;4391459;32;19972;-79
2022/04/22 04:07:31;;;;;;;;;;;;;;;;;;4378438;32;20034;-77
2022/04/22 04:16:06;;;;;;;19.70;9.63;;;;;;;;;;4391723;32;20045;-78
2022/04/22 04:18:12;;;;;;;14.20;9.93;;;;;;;;;;4379718;32;20030;-77
2022/04/22 04:23:22;;;;;;;13.43;10.05;;;;;;;;;;4391498;32;19932;-77
2022/04/22 04:25:47;;;;;;;;;;;;;;;;;;4377777;32;20062;-77
2022/04/22 04:28:14;;;;;;;16.23;10.57;;;;;;;;;;4390957;32;19985;-76
2022/04/22 04:30:40;;;;;;;17.05;10.38;;;;;;;;;;4392019;32;20034;-77
2022/04/22 04:33:05;;;;;;;;;;;;;;;;;;4391845;32;20072;-76
2022/04/22 04:35:38;;;;;;;15.52;9.82;;;;;;;;;;4391390;32;20308;-78
2022/04/22 04:38:04;;;;;;;16.77;9.95;;;;;;;;;;4391254;32;20576;-76
2022/04/22 04:40:29;;;;;;;;;;;;;;;;;;4390658;32;20088;-77
2022/04/22 04:42:54;;;;;;;18.02;11.25;;;;;;;;;;4391020;32;19992;-76
2022/04/22 04:45:19;;;;;;;;;;;;;;;;;;4377669;32;20193;-77
2022/04/22 04:47:45;;;;;;;15.02;10.88;;;;;;;;;;4391583;32;19937;-75
2022/04/22 04:50:10;;;;;;;;;;;;;;;;;;4391381;32;20119;-77
2022/04/22 04:52:37;;;;;;;14.60;10.25;;;;;;;;;;4391829;32;19930;-77
2022/04/22 04:55:05;;;;;;;13.50;10.13;;;;;;;;;;4390804;32;20022;-77
2022/04/22 04:57:30;;;;;;;19.05;10.70;;;;;;;;;;4391202;32;20026;-76
2022/04/22 04:59:55;;;;;;;;;;;;;;;;;;4391663;32;20073;-77
2022/04/22 05:02:20;;;;;;;15.00;9.90;;;;;;;;;;4391396;32;19938;-77
2022/04/22 05:04:46;;;;;;;;;;;;;;;;;;4390235;32;20329;-77
2022/04/22 05:07:11;;;;;;;17.27;9.85;;;;;;;;;;4390754;32;19946;-78
2022/04/22 05:09:36;;;;;;;;;;;;;;;;;;4391299;32;20026;-77
2022/04/22 05:12:01;;;;;;;14.15;9.25;;;;;;;;;;4376805;32;19949;-77
2022/04/22 05:14:27;;;;;;;;;;;;;;;;;;4376720;32;20457;-77
2022/04/22 05:16:54;;;;;;;14.32;9.73;;;;;;;;;;4388921;32;19937;-78
2022/04/22 05:19:21;;;;;;;15.10;10.52;;;;;;;;;;4390748;32;20027;-74
2022/04/22 05:21:46;;;;;;;12.80;9.63;;;;;;;;;;4377259;32;20038;-77
2022/04/22 05:24:11;;;;;;;;;;;;;;;;;;4391631;32;20454;-76
2022/04/22 05:26:36;;;;;;;15.13;10.05;;;;;;;;;;4390377;32;19987;-77
2022/04/22 05:29:01;;;;;;;;;;;;;;;;;;4391368;32;20517;-77
2022/04/22 05:34:14;;;;;;;12.85;9.38;;;;;;;;;;4391165;32;20372;-79
2022/04/22 05:36:39;;;;;;;13.48;10.38;;;;;;;;;;4390742;32;20068;-79
2022/04/22 05:39:08;;;;;;;;;;;;;;;;;;4376815;32;20031;-77
2022/04/22 05:41:37;;;;;;;15.90;10.18;;;;;;;;;;4393066;32;19959;-77
2022/04/22 05:44:03;;;;;;;14.60;11.15;;;;;;;;;;4381116;32;20109;-76
2022/04/22 05:46:29;;;;;;;16.25;10.57;;;;;;;;;;4390419;32;20068;-79
2022/04/22 05:48:54;;;;;;;;;;;;;;;;;;4377018;32;20030;-79
2022/04/22 05:51:19;;;;;;;17.08;10.20;;;;;;;;;;4389750;32;19942;-78
2022/04/22 05:53:48;;;;;;;;;;;;;;;;;;4389125;32;20034;-78
2022/04/22 05:56:13;;;;;;;17.05;10.27;;;;;;;;;;4372320;32;19934;-77
2022/04/22 05:58:38;;;;;;;;;;;;;;;;;;4375545;32;20022;-79
2022/04/22 06:01:04;;;;;;;14.38;10.95;;;;;;;;;;4361148;32;20308;-78
2022/04/22 06:03:30;;;;;;;;;;;;;;;;;;4375845;32;20081;-78
2022/04/22 06:05:58;;;;;;;12.95;10.15;;;;;;;;;;4375485;32;19982;-79
2022/04/22 06:11:13;;;;;;;15.18;10.73;;;;;;;;;;4375091;32;20380;-77
2022/04/22 06:13:39;;;;;;;17.00;10.45;;;;;;;;;;4374855;32;20377;-77
2022/04/22 06:16:04;;;;;;;14.85;12.20;;;;;;;;;;4374725;32;20019;-77
2022/04/22 06:18:29;;;;;;;;;;;;;;;;;;4374989;32;20019;-78
2022/04/22 06:20:54;;;;;;;14.32;11.45;;;;;;;;;;4375488;32;19972;-77
2022/04/22 06:23:19;;;;;;;;;;;;;;;;;;4375617;32;20127;-78
2022/04/22 06:25:48;;;;;;;17.80;11.70;;;;;;;;;;4383190;32;19982;-78
2022/04/22 06:28:13;;;;;;;18.95;11.88;;;;;;;;;;4390429;32;20057;-78
2022/04/22 06:30:40;;;;;;;13.73;11.23;;;;;;;;;;4389281;32;20031;-77
2022/04/22 06:33:06;;;;;;;20.20;13.02;;;;;;;;;;4405539;32;20026;-77
2022/04/22 06:35:31;;;;;;;;;;;;;;;;;;4408419;32;20099;-77
2022/04/22 06:37:57;;;;;;;20.85;13.48;;;;;;;;;;4408305;32;19991;-76
2022/04/22 06:45:51;;;;;;;19.25;13.10;;;;;;;;;;4408811;32;20434;-77
2022/04/22 06:48:18;;;;;;;23.17;14.30;;;;;;;;;;4407724;32;20038;-76
2022/04/22 06:50:44;;;;;;;17.87;12.73;;;;;;;;;;4394367;32;20022;-75
2022/04/22 06:53:09;;;;;;;18.67;13.98;;;;;;;;;;4411907;32;20090;-76
2022/04/22 06:55:35;;;;;;;17.05;13.80;;;;;;;;;;4409959;32;20387;-76
2022/04/22 06:58:00;;;;;;;;;;;;;;;;;;4408575;32;20022;-77
2022/04/22 07:00:26;;;;;;;21.48;13.88;;;;;;;;;;4407635;32;19944;-77
2022/04/22 07:02:51;;;;;;;;;;;;;;;;;;4408029;32;20022;-77
2022/04/22 07:05:17;;;;;;;19.33;14.73;;;;;;;;;;4407522;32;19953;-77
2022/04/22 07:07:42;;;;;;;;;;;;;;;;;;4407688;32;20065;-76
2022/04/22 07:10:08;;;;;;;16.83;13.25;;;;;;;;;;4407479;32;19986;-77
2022/04/22 07:12:33;;;;;;;;;;;;;;;;;;4405025;32;20053;-76
2022/04/22 07:15:05;;;;;;;23.58;14.80;;;;;;;;;;4390951;32;20336;-76
2022/04/22 07:17:37;;;;;;;26.58;14.18;;;;;;;;;;4392020;32;20044;-77
2022/04/22 07:20:09;;;;;;;20.35;14.32;;;;;;;;;;4392245;32;20317;-77
2022/04/22 07:22:34;;;;;;;22.27;14.82;;;;;;;;;;4392077;32;20079;-78
2022/04/22 07:25:00;;;;;;;21.23;15.27;;;;;;;;;;4378743;32;20031;-77
2022/04/22 07:27:26;;;;;;;;;;;;;;;;;;4392154;32;20095;-77
2022/04/22 07:29:51;;;;;;;21.30;13.73;;;;;;;;;;4392188;32;19946;-76
2022/04/22 07:32:20;;;;;;;18.98;14.40;;;;;;;;;;4378066;32;20395;-77
2022/04/22 07:34:46;;;;;;;24.00;13.23;;;;;;;;;;4384600;32;20408;-75
2022/04/22 07:37:12;;;;;;;20.33;13.88;;;;;;;;;;4391877;32;20065;-77
2022/04/22 07:39:40;;;;;;;22.62;14.35;;;;;;;;;;4390288;32;20073;-77
2022/04/22 07:42:24;;;;;;;18.73;13.27;;;;;;;;;;4386474;32;20031;-77
2022/04/22 07:47:35;;;;;;;21.42;14.18;;;;;;;;;;4392231;32;20471;-78
2022/04/22 07:50:05;;;;;;;22.05;13.18;;;;;;;;;;4391785;32;20038;-77
2022/04/22 07:52:34;;;;;;;20.67;13.00;;;;;;;;;;4379473;32;20053;-77
2022/04/22 07:55:00;;;;;;;16.65;13.50;;;;;;;;;;4377142;32;20109;-77
2022/04/22 07:57:26;;;;;;;19.92;14.15;;;;;;;;;;4391185;32;20047;-77
2022/04/22 07:59:52;;;;;;;21.55;14.60;;;;;;;;;;4392155;32;20412;-77
2022/04/22 08:02:17;;;;;;;23.93;15.13;;;;;;;;;;4390217;32;20061;-76
2022/04/22 08:04:42;;;;;;;;;;;;;;;;;;4389047;32;20188;-77
2022/04/22 08:07:08;;;;;;;19.40;13.88;;;;;;;;;;4377414;32;20366;-77
2022/04/22 08:09:34;;;;;;;18.45;13.90;;;;;;;;;;4391033;32;20053;-77
2022/04/22 08:12:00;;;;;;;20.73;14.00;;;;;;;;;;4391617;32;20022;-77
2022/04/22 08:14:34;;;;;;;18.00;13.23;;;;;;;;;;4391598;32;20052;-78
2022/04/22 08:17:02;;;;;;;19.02;13.43;;;;;;;;;;4392534;32;20048;-77
2022/04/22 08:19:27;;;;;;;22.62;14.30;;;;;;;;;;4390627;32;20385;-77
2022/04/22 08:21:53;;;;;;;25.20;14.38;;;;;;;;;;4377593;32;20039;-77
2022/04/22 08:24:18;;;;;;;;;;;;;;;;;;4390806;32;20061;-78
2022/04/22 08:26:46;;;;;;;18.33;13.30;;;;;;;;;;4391186;32;19949;-78
2022/04/22 08:29:11;;;;;;;18.37;13.88;;;;;;;;;;4391099;32;20170;-78
2022/04/22 08:31:37;;;;;;;22.70;14.35;;;;;;;;;;4390931;32;20376;-77
2022/04/22 08:34:02;;;;;;;20.40;13.77;;;;;;;;;;4377057;32;20436;-77
2022/04/22 08:36:27;;;;;;;;;;;;;;;;;;4391004;32;20050;-77
2022/04/22 08:38:52;;;;;;;17.25;12.93;;;;;;;;;;4390769;32;20018;-77
2022/04/22 08:41:21;;;;;;;17.05;12.23;;;;;;;;;;4390956;32;20427;-76
2022/04/22 08:43:47;;;;;;;18.77;13.50;;;;;;;;;;4391040;32;20052;-77
2022/04/22 08:51:45;;;;;;;19.45;13.62;;;;;;;;;;4366328;32;20102;-77
2022/04/22 08:54:12;;;;;;;21.90;12.57;;;;;;;;;;4390596;32;20074;-77
2022/04/22 08:56:38;;;;;;;19.48;13.25;;;;;;;;;;4376676;32;20026;-79
2022/04/22 08:59:03;;;;;;;20.17;12.55;;;;;;;;;;4388545;32;20105;-77
2022/04/22 09:01:31;;;;;;;21.55;11.95;;;;;;;;;;4391202;32;20149;-76
2022/04/22 09:03:56;;;;;;;15.90;10.68;;;;;;;;;;4391246;32;20023;-75
2022/04/22 09:06:34;;;;;;;17.48;10.98;;;;;;;;;;4390320;32;20026;-77
2022/04/22 09:09:09;;;;;;;14.73;9.80;;;;;;;;;;4389618;32;20042;-77
2022/04/22 09:11:42;;;;;;;13.65;9.13;;;;;;;;;;4391331;32;20031;-76
2022/04/22 09:14:08;;;;;;;15.32;9.77;;;;;;;;;;4377356;32;20035;-78
2022/04/22 09:16:38;;;;;;;15.13;9.38;;;;;;;;;;4376759;32;20053;-78
2022/04/22 09:19:04;;;;;;;18.42;9.00;;;;;;;;;;4390390;32;20048;-77
2022/04/22 09:21:29;;;;;;;12.13;9.13;;;;;;;;;;4389898;32;20364;-77
2022/04/22 09:23:54;;;;;;;;;;;;;;;;;;4394818;32;20124;-77
2022/04/22 09:26:23;;;;;;;13.70;9.40;;;;;;;;;;4379223;32;19937;-79
2022/04/22 09:29:02;;;;;;;13.07;8.90;;;;;;;;;;4376592;32;20150;-77
2022/04/22 09:31:28;;;;;;;18.67;9.55;;;;;;;;;;4390421;32;20080;-76
2022/04/22 09:33:53;;;;;;;14.95;8.38;;;;;;;;;;4391073;32;20026;-78
2022/04/22 09:44:54;;;;;;;;;;;;;;;;;;4390474;32;20088;-78
2022/04/22 09:47:20;;;;;;;16.05;8.50;;;;;;;;;;4390508;32;19937;-77
2022/04/22 09:49:45;;;;;;;12.40;7.85;;;;;;;;;;4390498;32;20030;-78
2022/04/22 09:52:10;;;;;;;13.90;8.43;;;;;;;;;;4389630;32;20026;-77
2022/04/22 09:54:38;;;;;;;12.93;7.68;;;;;;;;;;4388233;32;20476;-78
2022/04/22 09:57:03;;;;;;;15.30;8.48;;;;;;;;;;4388432;32;20038;-78
2022/04/22 09:59:30;;;;;;;12.50;7.87;;;;;;;;;;4394190;32;20053;-72
2022/04/22 10:01:58;;;;;;;8.55;6.47;;;;;;;;;;4391928;32;20026;-78
2022/04/22 10:04:23;;;;;;;12.73;8.18;;;;;;;;;;4390160;32;20463;-77
2022/04/22 10:06:49;;;;;;;11.43;7.95;;;;;;;;;;4389266;32;20058;-77
2022/04/22 10:09:15;;;;;;;12.95;7.53;;;;;;;;;;4389577;32;20101;-77
2022/04/22 10:11:41;;;;;;;17.00;7.50;;;;;;;;;;4389747;32;20023;-78
2022/04/22 10:14:11;;;;;;;11.30;7.65;;;;;;;;;;4376398;32;20019;-79
2022/04/22 10:16:37;;;;;;;12.73;8.25;;;;;;;;;;4390144;32;20093;-77
2022/04/22 10:19:08;;;;;;;12.52;8.23;;;;;;;;;;4389790;32;20053;-78
2022/04/22 10:21:33;;;;;;;10.07;7.72;;;;;;;;;;4390238;32;20018;-78
2022/04/22 10:23:58;;;;;;;11.80;7.97;;;;;;;;;;4376235;32;20077;-77
2022/04/22 10:26:26;;;;;;;9.52;8.10;;;;;;;;;;4389734;32;20052;-78
2022/04/22 10:28:52;;;;;;;9.82;7.62;;;;;;;;;;4387669;32;20122;-77
2022/04/22 10:31:17;;;;;;;13.27;7.28;;;;;;;;;;4376853;32;20451;-78
2022/04/22 10:33:43;;;;;;;12.65;7.40;;;;;;;;;;4389472;32;20039;-76
2022/04/22 10:36:13;;;;;;;21.40;8.57;;;;;;;;;;4387762;32;20054;-77
2022/04/22 10:38:39;;;;;;;9.75;7.50;;;;;;;;;;4390376;32;20061;-77
2022/04/22 10:41:24;;;;;;;9.32;6.80;;;;;;;;;;4391598;32;20094;-77
2022/04/22 10:49:40;;;;;;;10.38;7.07;;;;;;;;;;4377089;32;20102;-79
2022/04/22 10:52:13;;;;;;;12.65;7.18;;;;;;;;;;4382404;32;20057;-77
2022/04/22 10:54:51;;;;;;;16.27;7.12;;;;;;;;;;4387701;32;20088;-77
2022/04/22 10:57:17;;;;;;;10.25;7.22;;;;;;;;;;4375631;32;20056;-77
2022/04/22 10:59:43;;;;;;;10.45;6.93;;;;;;;;;;4380709;32;20022;-77
2022/04/22 11:02:28;;;;;;;12.25;7.60;;;;;;;;;;4391277;32;20057;-78
2022/04/22 11:05:12;;;;;;;9.48;6.22;;;;;;;;;;4390426;32;20060;-78
2022/04/22 11:07:57;;;;;;;10.27;6.50;;;;;;;;;;4391624;32;20065;-78
2022/04/22 11:10:24;;;;;;;10.73;6.32;;;;;;;;;;4391204;32;20023;-77
2022/04/22 11:12:56;;;;;;;11.02;6.75;;;;;;;;;;4390247;32;20058;-77
2022/04/22 11:15:40;;;;;;;14.98;7.03;;;;;;;;;;4391257;32;20054;-78
2022/04/22 11:18:06;;;;;;;10.07;6.05;;;;;;;;;;4392978;32;20110;-78
2022/04/22 11:20:34;;;;;;;9.05;5.78;;;;;;;;;;4392706;32;20030;-79
2022/04/22 11:23:00;;;;;;;11.07;5.90;;;;;;;;;;4391960;32;20037;-78
2022/04/22 11:25:27;;;;;;;8.30;5.75;;;;;;;;;;4391917;32;20416;-78
2022/04/22 11:27:58;;;;;;;7.28;5.40;;;;;;;;;;4403152;32;20023;-77
2022/04/22 11:30:29;;;;;;;12.18;5.95;;;;;;;;;;4406867;32;20038;-77
2022/04/22 11:33:02;;;;;;;8.70;5.87;;;;;;;;;;4397641;32;20057;-78
2022/04/22 11:35:34;;;;;;;12.48;5.85;;;;;;;;;;4391756;32;20030;-78
2022/04/22 11:38:04;;;;;;;12.00;6.18;;;;;;;;;;4391375;32;20022;-78
2022/04/22 11:40:32;;;;;;;10.75;6.35;;;;;;;;;;4376586;32;20070;-78
2022/04/22 11:43:04;;;;;;;15.43;7.60;;;;;;;;;;4391762;32;20450;-77
2022/04/22 11:45:30;;;;;;;9.63;5.93;;;;;;;;;;4391803;32;20362;-78
2022/04/22 11:47:56;;;;;;;12.25;6.65;;;;;;;;;;4391869;32;20073;-78
2022/04/22 11:50:28;;;;;;;8.48;6.35;;;;;;;;;;4392365;32;20065;-78
2022/04/22 11:52:57;;;;;;;13.88;6.80;;;;;;;;;;4379107;32;20052;-77
2022/04/22 11:55:22;;;;;;;15.73;7.22;;;;;;;;;;4392887;32;20103;-78
2022/04/22 11:57:48;;;;;;;11.57;7.05;;;;;;;;;;4377982;32;20054;-78
2022/04/22 12:05:48;;;;;;;10.27;6.85;;;;;;;;;;4391636;32;20395;-78
2022/04/22 12:08:15;;;;;;;13.13;6.65;;;;;;;;;;4391240;32;20064;-77
2022/04/22 12:10:42;;;;;;;9.55;6.32;;;;;;;;;;4391836;32;20041;-77
2022/04/22 12:13:08;;;;;;;12.60;6.47;;;;;;;;;;4391051;32;20152;-76
2022/04/22 12:15:35;;;;;;;9.63;6.00;;;;;;;;;;4391509;32;20023;-78
2022/04/22 12:18:02;;;;;;;8.75;5.97;;;;;;;;;;4391152;32;20134;-79
2022/04/22 12:20:28;;;;;;;8.70;6.12;;;;;;;;;;4391051;32;20340;-78
2022/04/22 12:22:55;;;;;;;11.15;5.50;;;;;;;;;;4378428;32;20045;-78
2022/04/22 12:25:22;;;;;;;7.93;5.55;;;;;;;;;;4391427;32;20217;-79
2022/04/22 12:28:10;;;;;;;13.25;5.97;;;;;;;;;;4391533;32;20096;-76
2022/04/22 12:30:36;;;;;;;9.02;5.47;;;;;;;;;;4377727;32;20099;-81
2022/04/22 12:33:02;;;;;;;6.78;4.90;;;;;;;;;;4391376;32;20026;-79
2022/04/22 12:35:27;;;;;;;11.00;4.87;;;;;;;;;;4391457;32;20462;-77
2022/04/22 12:37:56;;;;;;;17.92;5.68;;;;;;;;;;4391038;32;20348;-79
2022/04/22 12:40:22;;;;;;;10.48;5.30;;;;;;;;;;4376818;32;20034;-76
2022/04/22 12:42:50;;;;;;;7.30;5.18;;;;;;;;;;4397535;32;20462;-79
2022/04/22 12:53:48;;;;;;;6.22;4.00;;;;;;;;;;4391108;32;20049;-78
2022/04/22 12:56:24;;;;;;;16.90;4.28;;;;;;;;;;4390793;32;20022;-78
2022/04/22 12:58:53;;;;;;;6.80;3.22;;;;;;;;;;4390869;32;20076;-78
2022/04/22 13:01:19;;;;;;;8.43;4.00;;;;;;;;;;4377545;32;20141;-79
2022/04/22 13:03:45;;;;;;;11.15;3.42;;;;;;;;;;4390546;32;20074;-79
2022/04/22 13:06:10;;;;;;;9.25;4.00;;;;;;;;;;4376643;32;20061;-76
2022/04/22 13:08:35;;;;;;;5.13;3.70;;;;;;;;;;4376596;32;20053;-78
2022/04/22 13:11:02;;;;;;;4.75;3.92;;;;;;;;;;4390302;32;20118;-77
2022/04/22 13:13:29;;;;;;;5.62;3.70;;;;;;;;;;4376702;32;20202;-77
2022/04/22 13:15:55;;;;;;;19.55;4.85;;;;;;;;;;4390439;32;20023;-75
2022/04/22 13:18:20;;;;;;;5.07;3.05;;;;;;;;;;4376179;32;20357;-78
2022/04/22 13:20:55;;;;;;;6.37;5.05;;;;;;;;;;4385783;32;20404;-78
2022/04/22 13:23:20;;;;;;;11.00;4.47;;;;;;;;;;4390374;32;20101;-78
2022/04/22 13:25:45;;;;;;;8.60;4.70;;;;;;;;;;4390040;32;20416;-79
2022/04/22 13:28:11;;;;;;;7.57;4.12;;;;;;;;;;4376403;32;20440;-79
2022/04/22 13:30:36;;;;;;;12.20;4.82;;;;;;;;;;4390002;32;20081;-78
2022/04/22 13:33:03;;;;;;;8.82;4.22;;;;;;;;;;4400132;32;20031;-78
2022/04/22 13:35:29;;;;;;;4.75;3.50;;;;;;;;;;4377483;32;20086;-78
2022/04/22 13:37:56;;;;;;;5.37;3.83;;;;;;;;;;4389485;32;20101;-79
2022/04/22 13:40:21;;;;;;;7.72;3.83;;;;;;;;;;4390030;32;20463;-78
2022/04/22 13:42:48;;;;;;;5.47;3.50;;;;;;;;;;4390143;32;20027;-79
2022/04/22 13:53:25;;;;;;;6.53;3.67;;;;;;;;;;4389835;32;20413;-74
2022/04/22 13:55:50;;;;;;;6.13;3.43;;;;;;;;;;4389830;32;20027;-74
2022/04/22 13:58:16;;;;;;;4.37;2.90;;;;;;;;;;4389877;32;20168;-77
2022/04/22 14:00:44;;;;;;;7.18;3.42;;;;;;;;;;4389627;32;20031;-80
2022/04/22 14:03:15;;;;;;;6.85;3.30;;;;;;;;;;4390873;32;20072;-79
2022/04/22 14:05:51;;;;;;;8.77;3.50;;;;;;;;;;4390618;32;20014;-79
2022/04/22 14:08:19;;;;;;;16.48;4.10;;;;;;;;;;4390535;32;20045;-77
2022/04/22 14:10:47;;;;;;;5.28;3.55;;;;;;;;;;4389958;32;20390;-77
2022/04/22 14:13:15;;;;;;;8.75;3.50;;;;;;;;;;4389657;32;20093;-78
2022/04/22 14:15:44;;;;;;;7.95;3.37;;;;;;;;;;4390061;32;20026;-79
2022/04/22 14:18:10;;;;;;;6.07;3.22;;;;;;;;;;4390709;32;20355;-78
2022/04/22 14:20:38;;;;;;;8.02;3.58;;;;;;;;;;4376678;32;20031;-76
2022/04/22 14:23:11;;;;;;;8.63;3.22;;;;;;;;;;4376053;32;20441;-79
2022/04/22 14:25:36;;;;;;;6.50;3.05;;;;;;;;;;4389622;32;20174;-78
2022/04/22 14:28:01;;;;;;;6.97;3.72;;;;;;;;;;4389614;32;20417;-78
2022/04/22 14:30:27;;;;;;;4.47;3.35;;;;;;;;;;4389666;32;20095;-77
2022/04/22 14:32:52;;;;;;;4.95;3.20;;;;;;;;;;4390018;32;20027;-79
2022/04/22 14:35:17;;;;;;;7.97;3.78;;;;;;;;;;4389251;32;20086;-80
2022/04/22 14:37:43;;;;;;;4.30;2.75;;;;;;;;;;4390034;32;20034;-78
2022/04/22 14:40:08;;;;;;;4.37;3.20;;;;;;;;;;4388044;32;20055;-78
2022/04/22 14:42:34;;;;;;;9.68;3.00;;;;;;;;;;4389664;32;20053;-78
2022/04/22 14:44:59;;;;;;;3.90;3.10;;;;;;;;;;4388458;32;20115;-78
2022/04/22 14:47:25;;;;;;;6.47;3.12;;;;;;;;;;4389260;32;20026;-77
2022/04/22 14:49:51;;;;;;;11.57;3.10;;;;;;;;;;4390487;32;20122;-78
2022/04/22 14:52:18;;;;;;;7.93;3.25;;;;;;;;;;4392364;32;20085;-79
2022/04/22 14:54:43;;;;;;;6.85;2.95;;;;;;;;;;4378519;32;20355;-78
2022/04/22 14:57:16;;;;;;;9.52;4.25;;;;;;;;;;4392300;32;20057;-78
2022/04/22 14:59:42;;;;;;;10.60;3.40;;;;;;;;;;4392885;32;20413;-78
2022/04/22 15:02:07;;;;;;;6.55;3.92;;;;;;;;;;4392625;32;20030;-78
2022/04/22 15:04:33;;;;;;;6.32;3.30;;;;;;;;;;4392204;32;20080;-78
2022/04/22 15:06:59;;;;;;;7.62;4.15;;;;;;;;;;4392765;32;20171;-78
2022/04/22 15:09:24;;;;;;;6.32;3.70;;;;;;;;;;4392111;32;20054;-78
2022/04/22 15:11:50;;;;;;;12.80;3.80;;;;;;;;;;4392492;32;20080;-78
2022/04/22 15:14:15;;;;;;;4.53;3.20;;;;;;;;;;4392597;32;20097;-78
2022/04/22 15:16:40;;;;;;;8.07;3.42;;;;;;;;;;4392420;32;20090;-78
2022/04/22 15:24:33;;;;;;;4.68;3.00;;;;;;;;;;4377457;32;20033;-78
2022/04/22 15:27:01;;;;;;;7.50;3.55;;;;;;;;;;4377242;32;20058;-77
2022/04/22 15:29:26;;;;;;;7.57;3.45;;;;;;;;;;4378076;32;20035;-78
2022/04/22 15:31:52;;;;;;;7.78;3.58;;;;;;;;;;4391316;32;20042;-78
2022/04/22 15:34:18;;;;;;;5.95;3.92;;;;;;;;;;4391841;32;20026;-77
2022/04/22 15:36:44;;;;;;;7.90;3.15;;;;;;;;;;4392312;32;20404;-78
2022/04/22 15:39:09;;;;;;;8.45;3.65;;;;;;;;;;4391700;32;20101;-78
2022/04/22 15:41:34;;;;;;;10.55;4.15;;;;;;;;;;4392243;32;20061;-78
2022/04/22 15:44:00;;;;;;;8.43;3.37;;;;;;;;;;4392176;32;20404;-78
2022/04/22 15:46:26;;;;;;;6.80;3.47;;;;;;;;;;4392083;32;20026;-77
2022/04/22 15:48:51;;;;;;;5.95;3.20;;;;;;;;;;4379077;32;20041;-78
2022/04/22 15:51:21;;;;;;;7.65;3.92;;;;;;;;;;4363151;32;20053;-78
2022/04/22 15:53:50;;;;;;;8.35;3.90;;;;;;;;;;4376491;32;20043;-78
2022/04/22 15:56:15;;;;;;;5.75;4.12;;;;;;;;;;4363243;32;20030;-78
2022/04/22 15:58:45;;;;;;;8.20;4.00;;;;;;;;;;4386327;32;20053;-77
2022/04/22 16:01:10;;;;;;;9.85;3.85;;;;;;;;;;4381672;32;20030;-77
2022/04/22 16:03:36;;;;;;;6.15;4.32;;;;;;;;;;4392515;32;20084;-78
2022/04/22 16:06:02;;;;;;;6.30;4.05;;;;;;;;;;4391644;32;20030;-78
2022/04/22 16:08:28;;;;;;;6.87;4.18;;;;;;;;;;4391673;32;20045;-78
2022/04/22 16:15:16;;;;;;;8.05;4.37;;;;;;;;;;4391270;32;20031;-79
2022/04/22 16:16:28;;;;;;;7.93;4.50;;;;;;;;;;4391784;32;20041;-78
2022/04/22 16:18:53;;;;;;;8.77;4.68;;;;;;;;;;4392410;32;20427;-79